Mykonos, Greece
Current Conditions -  °F | °C
As of 1:50 PM on Sunday 23 Nov 2014 (Local Time) from LGMK Reporting Station
Scattered Clouds Scattered Clouds  
Wind Chill: 57°   Ceiling: Unl
Heat Index: 57°   Visibility: 6mi
Dew Point: 43°   Wind: 18mph
Humidity: 59%   Direction: 10°N
Pressure: 30.18"   Gusts: NA
Location:  38.03°N, 25.36°E
Report Text: LGMK 231050Z 01016KT 9999 SCT020 SCT080 14/06 Q1022
Loading
Personal Weather Stations






























Interactive Weather Map New forecast layout! Learn more

10-Day Weather Forecast

Advertisements
Track Severe Weather on mobile